createdAt,value
2018-06-16T00:00:53.786Z,96.60
2018-06-16T00:03:22.986Z,96.70
2018-06-16T00:05:58.241Z,96.60
2018-06-16T00:08:27.433Z,96.60
2018-06-16T00:13:57.463Z,96.60
2018-06-16T00:16:26.684Z,96.80
2018-06-16T00:18:55.919Z,96.80
2018-06-16T00:21:25.101Z,96.80
2018-06-16T00:24:00.444Z,96.90
2018-06-16T00:26:29.622Z,96.90
2018-06-16T00:28:58.802Z,97.30
2018-06-16T00:31:28.018Z,97.00
2018-06-16T00:33:57.188Z,97.00
2018-06-16T00:36:26.425Z,97.10
2018-06-16T00:38:58.792Z,97.10
2018-06-16T00:41:27.985Z,97.20
2018-06-16T00:43:57.206Z,97.20
2018-06-16T00:46:26.356Z,97.30
2018-06-16T00:48:55.532Z,97.00
2018-06-16T00:51:24.737Z,97.70
2018-06-16T00:58:02.414Z,97.70
2018-06-16T01:00:31.578Z,97.60
2018-06-16T01:03:00.746Z,97.70
2018-06-16T01:05:29.962Z,97.80
2018-06-16T01:07:59.121Z,97.80
2018-06-16T01:10:28.278Z,97.80
2018-06-16T01:12:57.485Z,97.80
2018-06-16T01:17:55.572Z,97.90
2018-06-16T01:23:25.285Z,98.10
2018-06-16T01:25:54.458Z,98.10
2018-06-16T01:28:23.625Z,98.20
2018-06-16T01:30:52.925Z,98.20
2018-06-16T01:33:22.194Z,98.30
2018-06-16T01:35:51.395Z,98.30
2018-06-16T01:38:20.598Z,98.40
2018-06-16T01:40:49.812Z,98.40
2018-06-16T01:43:19.030Z,98.40
2018-06-16T01:45:48.196Z,98.50
2018-06-16T01:48:17.376Z,98.90
2018-06-16T01:53:15.500Z,98.80
2018-06-16T01:55:44.725Z,98.80
2018-06-16T02:00:42.866Z,98.90
2018-06-16T02:03:12.048Z,98.80
2018-06-16T02:05:41.209Z,99.00
2018-06-16T02:08:10.398Z,99.00
2018-06-16T02:10:39.571Z,99.10
2018-06-16T02:13:09.017Z,99.00
2018-06-16T02:15:57.368Z,99.10
2018-06-16T02:18:26.611Z,99.20
2018-06-16T02:20:55.777Z,99.30
2018-06-16T02:23:25.525Z,97.30
2018-06-16T02:25:54.676Z,99.80
2018-06-16T02:33:53.635Z,99.80
2018-06-16T02:36:23.070Z,99.80
2018-06-16T02:38:52.215Z,99.70
2018-06-16T02:41:21.436Z,99.70
2018-06-16T02:43:50.724Z,99.70
2018-06-16T02:46:19.902Z,99.80
2018-06-16T02:48:49.086Z,99.70
2018-06-16T02:51:18.239Z,99.80
2018-06-16T02:53:47.448Z,99.80
2018-06-16T02:56:16.605Z,98.40
2018-06-16T02:58:58.104Z,99.90
2018-06-16T03:01:27.269Z,99.80
2018-06-16T03:03:56.961Z,99.90
2018-06-16T03:06:26.117Z,99.90
2018-06-16T03:08:55.286Z,99.90
2018-06-16T03:11:24.473Z,99.90
2018-06-16T03:13:53.691Z,99.90
2018-06-16T03:16:22.850Z,99.90
2018-06-16T03:18:52.036Z,99.90
2018-06-16T03:21:21.205Z,99.90
2018-06-16T03:23:50.465Z,99.90
2018-06-16T03:26:19.663Z,99.90
2018-06-16T03:28:48.862Z,99.90
2018-06-16T03:31:18.117Z,99.90
2018-06-16T03:33:47.390Z,99.90
2018-06-16T03:36:16.697Z,99.90
2018-06-16T03:38:45.865Z,99.90
2018-06-16T03:41:15.094Z,99.90
2018-06-16T03:43:44.270Z,99.90
2018-06-16T03:46:13.473Z,99.90
2018-06-16T03:48:42.736Z,99.90
2018-06-16T03:51:11.896Z,99.90
2018-06-16T03:53:41.092Z,99.90
2018-06-16T03:56:10.268Z,99.90
2018-06-16T03:58:39.471Z,99.90
2018-06-16T04:01:08.644Z,99.90
2018-06-16T04:03:37.845Z,99.90
2018-06-16T04:06:07.118Z,99.90
2018-06-16T04:11:37.070Z,99.90
2018-06-16T04:14:06.447Z,99.90
2018-06-16T04:16:35.684Z,99.90
2018-06-16T04:19:04.890Z,99.90
2018-06-16T04:24:34.634Z,99.90
2018-06-16T04:27:03.808Z,99.90
2018-06-16T04:29:32.977Z,99.90
2018-06-16T04:32:02.176Z,99.90
2018-06-16T04:34:31.398Z,99.90
2018-06-16T04:37:00.563Z,99.90
2018-06-16T04:39:29.784Z,99.90
2018-06-16T04:41:58.990Z,99.90
2018-06-16T04:44:28.206Z,99.90
2018-06-16T04:46:57.730Z,99.90
2018-06-16T04:52:27.414Z,99.90
2018-06-16T04:54:57.010Z,99.90
2018-06-16T04:57:26.196Z,99.90
2018-06-16T04:59:55.657Z,99.90
2018-06-16T05:02:24.849Z,99.90
2018-06-16T05:05:00.538Z,99.90
2018-06-16T05:07:29.689Z,99.90
2018-06-16T05:09:58.898Z,99.90
2018-06-16T05:12:28.115Z,99.90
2018-06-16T05:14:57.669Z,99.90
2018-06-16T05:20:27.483Z,99.90
2018-06-16T05:22:56.702Z,99.90
2018-06-16T05:25:25.874Z,99.90
2018-06-16T05:27:55.264Z,99.90
2018-06-16T05:30:24.462Z,99.90
2018-06-16T05:32:59.707Z,99.90
2018-06-16T05:35:28.937Z,99.90
2018-06-16T05:37:58.164Z,99.90
2018-06-16T05:40:27.377Z,99.90
2018-06-16T05:42:56.566Z,99.90
2018-06-16T05:45:25.802Z,99.90
2018-06-16T05:47:54.965Z,99.90
2018-06-16T05:50:24.157Z,99.90
2018-06-16T05:55:22.289Z,99.90
2018-06-16T05:57:51.525Z,99.90
2018-06-16T06:00:20.696Z,99.90
2018-06-16T06:02:49.893Z,99.90
2018-06-16T06:05:19.096Z,99.90
2018-06-16T06:07:48.484Z,99.90
2018-06-16T06:10:17.691Z,99.90
2018-06-16T06:12:47.045Z,99.90
2018-06-16T06:15:16.263Z,99.90
2018-06-16T06:17:45.436Z,99.90
2018-06-16T06:20:14.643Z,99.90
2018-06-16T06:22:43.863Z,99.90
2018-06-16T06:25:13.072Z,99.80
2018-06-16T06:27:58.642Z,97.30
2018-06-16T06:30:57.288Z,97.60
2018-06-16T06:33:26.485Z,99.50
2018-06-16T06:36:00.137Z,99.60
2018-06-16T06:41:57.947Z,99.90
2018-06-16T06:59:56.091Z,96.50
2018-06-16T07:41:27.155Z,94.90
2018-06-16T07:49:59.341Z,93.10
2018-06-16T07:55:28.551Z,93.70
2018-06-16T07:57:59.286Z,92.70
2018-06-16T08:00:57.701Z,94.10
2018-06-16T08:06:27.732Z,93.00
2018-06-16T08:10:04.105Z,93.40
2018-06-16T08:12:58.109Z,91.90
2018-06-16T08:21:57.273Z,92.60
2018-06-16T08:39:57.444Z,90.10
2018-06-16T08:45:56.610Z,88.10
2018-06-16T09:18:57.492Z,81.80
2018-06-16T09:21:26.745Z,82.10
2018-06-16T09:26:56.530Z,81.50
2018-06-16T09:38:26.544Z,86.30
2018-06-16T09:42:35.800Z,82.60
2018-06-16T09:48:05.285Z,81.10
2018-06-16T09:50:57.709Z,82.40
2018-06-16T10:08:56.420Z,80.20
2018-06-16T10:14:25.783Z,83.70
2018-06-16T10:16:54.981Z,83.90
2018-06-16T10:19:24.144Z,81.80
2018-06-16T10:21:53.335Z,80.80
2018-06-16T10:24:22.532Z,81.80
2018-06-16T10:26:51.704Z,80.00
2018-06-16T10:29:20.905Z,81.20
2018-06-16T10:31:50.060Z,79.50
2018-06-16T10:34:19.216Z,81.70
2018-06-16T10:36:48.492Z,82.20
2018-06-16T10:39:18.124Z,81.80
2018-06-16T10:44:47.908Z,79.80
2018-06-16T10:50:17.910Z,79.80
2018-06-16T10:52:47.112Z,81.30
2018-06-16T10:55:16.277Z,80.10
2018-06-16T10:57:45.456Z,80.90
2018-06-16T11:00:14.621Z,78.30
2018-06-16T11:02:43.989Z,77.50
2018-06-16T11:05:13.175Z,77.30
2018-06-16T11:07:42.320Z,80.40
2018-06-16T11:19:12.092Z,77.20
2018-06-16T11:24:59.735Z,76.80
2018-06-16T11:33:56.667Z,74.30
2018-06-16T11:42:56.468Z,76.60
2018-06-16T11:57:26.843Z,75.40
2018-06-16T12:22:58.773Z,69.80
2018-06-16T12:46:57.271Z,67.40
2018-06-16T12:52:26.434Z,66.40
2018-06-16T12:54:59.424Z,66.60
2018-06-16T12:57:57.881Z,67.90
2018-06-16T13:00:27.720Z,65.70
2018-06-16T13:14:59.404Z,65.00
2018-06-16T13:17:57.740Z,67.30
2018-06-16T13:23:26.862Z,63.20
2018-06-16T13:25:56.024Z,63.80
2018-06-16T13:28:25.236Z,62.50
2018-06-16T13:31:00.009Z,62.60
2018-06-16T13:33:57.792Z,63.20
2018-06-16T13:37:14.625Z,62.10
2018-06-16T13:39:43.852Z,62.10
2018-06-16T13:42:13.060Z,61.90
2018-06-16T13:47:26.914Z,65.40
2018-06-16T13:50:25.810Z,65.20
2018-06-16T13:52:55.008Z,66.20
2018-06-16T13:55:24.183Z,66.20
2018-06-16T14:00:58.905Z,62.90
2018-06-16T14:03:28.074Z,64.60
2018-06-16T14:05:57.249Z,66.20
2018-06-16T14:08:26.472Z,61.60
2018-06-16T14:10:55.651Z,62.40
2018-06-16T14:16:24.864Z,61.80
2018-06-16T14:18:54.121Z,63.20
2018-06-16T14:21:23.430Z,62.00
2018-06-16T14:26:53.750Z,62.00
2018-06-16T14:29:22.914Z,61.70
2018-06-16T14:31:52.093Z,60.10
2018-06-16T14:34:21.424Z,61.90
2018-06-16T14:36:50.776Z,63.30
2018-06-16T14:39:19.937Z,61.90
2018-06-16T14:44:33.945Z,64.00
2018-06-16T14:47:10.585Z,62.00
2018-06-16T14:49:41.292Z,61.80
2018-06-16T14:52:10.469Z,62.40
2018-06-16T14:57:40.606Z,62.10
2018-06-16T15:00:09.782Z,62.50
2018-06-16T15:02:38.921Z,59.90
2018-06-16T15:05:08.152Z,59.00
2018-06-16T15:07:37.350Z,60.10
2018-06-16T15:10:06.693Z,61.90
2018-06-16T15:12:35.897Z,61.80
2018-06-16T15:15:05.521Z,60.10
2018-06-16T15:17:34.785Z,59.40
2018-06-16T15:20:03.961Z,60.20
2018-06-16T15:22:33.124Z,59.10
2018-06-16T15:25:02.335Z,58.00
2018-06-16T15:27:31.588Z,58.00
2018-06-16T15:30:00.800Z,59.80
2018-06-16T15:32:29.970Z,57.60
2018-06-16T15:34:59.133Z,60.00
2018-06-16T15:40:28.921Z,56.50
2018-06-16T15:42:58.126Z,56.30
2018-06-16T15:45:27.336Z,55.70
2018-06-16T15:53:56.534Z,58.50
2018-06-16T15:56:25.737Z,58.90
2018-06-16T15:58:55.285Z,58.30
2018-06-16T16:01:24.453Z,56.90
2018-06-16T16:03:53.649Z,59.70
2018-06-16T16:06:22.839Z,57.00
2018-06-16T16:08:52.019Z,56.20
2018-06-16T16:11:21.241Z,56.20
2018-06-16T16:13:50.465Z,57.30
2018-06-16T16:16:19.662Z,56.20
2018-06-16T16:21:49.056Z,56.30
2018-06-16T16:24:18.255Z,55.20
2018-06-16T16:26:47.506Z,55.70
2018-06-16T16:32:17.684Z,55.50
2018-06-16T16:34:59.278Z,54.00
2018-06-16T16:40:28.997Z,54.40
2018-06-16T16:42:59.866Z,56.90
2018-06-16T16:45:29.219Z,55.50
2018-06-16T16:47:58.382Z,55.30
2018-06-16T16:50:27.575Z,56.40
2018-06-16T16:52:56.790Z,56.40
2018-06-16T16:55:26.020Z,56.80
2018-06-16T16:58:01.237Z,57.60
2018-06-16T17:00:57.230Z,57.10
2018-06-16T17:03:26.470Z,57.20
2018-06-16T17:08:24.677Z,56.80
2018-06-16T17:10:54.032Z,56.60
2018-06-16T17:13:23.239Z,55.70
2018-06-16T17:15:52.474Z,56.00
2018-06-16T17:18:21.685Z,55.80
2018-06-16T17:20:50.858Z,55.60
2018-06-16T17:23:20.109Z,55.90
2018-06-16T17:25:49.293Z,56.30
2018-06-16T17:28:18.445Z,55.00
2018-06-16T17:30:47.662Z,55.50
2018-06-16T17:33:16.898Z,55.60
2018-06-16T17:35:46.102Z,57.00
2018-06-16T17:38:15.288Z,57.10
2018-06-16T17:40:57.959Z,56.50
2018-06-16T17:43:27.205Z,55.90
2018-06-16T17:45:56.424Z,56.10
2018-06-16T17:48:25.696Z,57.50
2018-06-16T17:50:54.891Z,56.90
2018-06-16T17:53:24.076Z,58.20
2018-06-16T17:55:53.297Z,57.10
2018-06-16T17:58:22.506Z,56.80
2018-06-16T18:00:51.665Z,56.60
2018-06-16T18:03:20.913Z,57.90
2018-06-16T18:05:50.080Z,57.50
2018-06-16T18:08:19.261Z,56.70
2018-06-16T18:13:55.751Z,56.90
2018-06-16T18:16:24.937Z,58.20
2018-06-16T18:18:54.165Z,57.80
2018-06-16T18:21:23.348Z,58.00
2018-06-16T18:23:52.558Z,59.30
2018-06-16T18:26:21.767Z,59.10
2018-06-16T18:28:50.966Z,59.00
2018-06-16T18:31:20.216Z,58.40
2018-06-16T18:33:49.375Z,58.90
2018-06-16T18:36:18.552Z,58.90
2018-06-16T18:39:00.503Z,58.90
2018-06-16T18:41:29.697Z,59.90
2018-06-16T18:43:59.765Z,59.70
2018-06-16T18:46:28.998Z,60.80
2018-06-16T18:48:58.229Z,60.30
2018-06-16T18:51:27.426Z,61.00
2018-06-16T18:56:57.204Z,61.60
2018-06-16T18:59:26.357Z,61.70
2018-06-16T19:01:55.568Z,61.90
2018-06-16T19:04:24.798Z,61.20
2018-06-16T19:07:00.204Z,62.30
2018-06-16T19:09:29.394Z,63.10
2018-06-16T19:11:58.642Z,63.40
2018-06-16T19:14:27.808Z,63.70
2018-06-16T19:16:56.964Z,63.70
2018-06-16T19:22:26.595Z,64.30
2018-06-16T19:24:55.973Z,65.30
2018-06-16T19:27:25.161Z,64.90
2018-06-16T19:29:54.373Z,65.20
2018-06-16T19:32:23.589Z,63.60
2018-06-16T19:37:26.809Z,66.00
2018-06-16T19:39:56.031Z,66.30
2018-06-16T19:42:25.202Z,66.60
2018-06-16T19:44:54.397Z,66.90
2018-06-16T19:47:23.569Z,67.20
2018-06-16T19:49:58.997Z,67.50
2018-06-16T19:52:28.186Z,67.80
2018-06-16T19:54:57.350Z,68.00
2018-06-16T19:57:26.573Z,68.20
2018-06-16T19:59:55.741Z,69.00
2018-06-16T20:02:25.110Z,69.10
2018-06-16T20:04:54.281Z,69.40
2018-06-16T20:07:23.485Z,70.60
2018-06-16T20:09:52.779Z,70.10
2018-06-16T20:12:21.951Z,70.30
2018-06-16T20:14:51.133Z,70.50
2018-06-16T20:20:17.689Z,70.90
2018-06-16T20:22:46.858Z,71.60
2018-06-16T20:25:16.065Z,72.10
2018-06-16T20:27:45.291Z,72.10
2018-06-16T20:30:14.524Z,72.40
2018-06-16T20:32:43.699Z,72.50
2018-06-16T20:35:12.861Z,73.20
2018-06-16T20:37:42.135Z,73.90
2018-06-16T20:40:11.305Z,74.10
2018-06-16T20:42:40.526Z,74.30
2018-06-16T20:45:09.725Z,75.20
2018-06-16T20:47:38.910Z,75.20
2018-06-16T20:50:08.898Z,75.60
2018-06-16T20:52:38.132Z,76.10
2018-06-16T20:55:07.346Z,77.30
2018-06-16T21:00:36.963Z,78.60
2018-06-16T21:03:06.442Z,78.80
2018-06-16T21:05:35.691Z,79.20
2018-06-16T21:08:04.893Z,79.90
2018-06-16T21:10:34.071Z,80.30
2018-06-16T21:13:03.306Z,79.80
2018-06-16T21:15:32.534Z,79.60
2018-06-16T21:18:01.740Z,79.30
2018-06-16T21:20:31.009Z,79.40
2018-06-16T21:23:00.235Z,78.90
2018-06-16T21:28:30.255Z,80.00
2018-06-16T21:30:59.446Z,80.30
2018-06-16T21:33:28.689Z,80.60
2018-06-16T21:35:57.957Z,80.80
2018-06-16T21:38:27.153Z,80.70
2018-06-16T21:40:56.557Z,81.30
2018-06-16T21:43:25.757Z,81.10
2018-06-16T21:45:54.949Z,81.90
2018-06-16T21:48:24.131Z,82.00
2018-06-16T21:50:53.321Z,82.20
2018-06-16T21:56:22.649Z,82.70
2018-06-16T21:58:51.898Z,83.00
2018-06-16T22:01:21.072Z,83.20
2018-06-16T22:03:50.252Z,83.60
2018-06-16T22:06:19.465Z,83.70
2018-06-16T22:08:48.644Z,83.80
2018-06-16T22:11:17.856Z,84.20
2018-06-16T22:13:47.049Z,83.10
2018-06-16T22:16:16.327Z,84.60
2018-06-16T22:18:45.494Z,84.90
2018-06-16T22:21:14.763Z,86.50
2018-06-16T22:23:58.333Z,87.00
2018-06-16T22:26:27.480Z,86.40
2018-06-16T22:28:56.717Z,86.90
2018-06-16T22:31:25.876Z,86.40
2018-06-16T22:33:55.083Z,87.00
2018-06-16T22:40:29.717Z,87.80
2018-06-16T22:42:58.858Z,87.60
2018-06-16T22:45:28.066Z,87.80
2018-06-16T22:47:57.307Z,88.10
2018-06-16T22:53:13.729Z,88.60
2018-06-16T22:55:42.901Z,88.80
2018-06-16T22:58:12.072Z,88.80
2018-06-16T23:00:41.295Z,89.20
2018-06-16T23:03:10.461Z,89.40
2018-06-16T23:08:39.781Z,89.70
2018-06-16T23:11:08.965Z,90.00
2018-06-16T23:13:38.129Z,90.00
2018-06-16T23:16:07.349Z,90.10
2018-06-16T23:18:36.503Z,90.20
2018-06-16T23:21:05.696Z,90.20
2018-06-16T23:23:34.905Z,90.30
2018-06-16T23:26:04.086Z,90.30
2018-06-16T23:28:33.305Z,90.40
2018-06-16T23:31:02.496Z,90.50
2018-06-16T23:33:31.699Z,91.10
2018-06-16T23:36:00.894Z,92.10
2018-06-16T23:38:30.106Z,92.70
2018-06-16T23:40:59.485Z,92.30
2018-06-16T23:43:28.822Z,92.50
2018-06-16T23:45:57.991Z,92.60
2018-06-16T23:48:27.187Z,92.30
2018-06-16T23:50:56.417Z,92.40
2018-06-16T23:53:25.678Z,92.50
2018-06-16T23:55:54.831Z,92.20
